sensor_id;sensor_type;location;lat;lon;timestamp;P1;durP1;ratioP1;P2;durP2;ratioP2
18170;SDS011;9210;48.358;10.902;2023-06-26T00:00:04;15.73;;;8.57;;
18170;SDS011;9210;48.358;10.902;2023-06-26T00:02:34;13.85;;;8.65;;
18170;SDS011;9210;48.358;10.902;2023-06-26T00:05:02;15.35;;;8.50;;
18170;SDS011;9210;48.358;10.902;2023-06-26T00:07:31;14.07;;;8.60;;
18170;SDS011;9210;48.358;10.902;2023-06-26T00:10:00;14.45;;;8.18;;
18170;SDS011;9210;48.358;10.902;2023-06-26T00:12:31;14.20;;;8.38;;
18170;SDS011;9210;48.358;10.902;2023-06-26T00:15:01;13.45;;;8.07;;
18170;SDS011;9210;48.358;10.902;2023-06-26T00:17:29;12.93;;;8.15;;
18170;SDS011;9210;48.358;10.902;2023-06-26T00:20:03;13.15;;;8.40;;
18170;SDS011;9210;48.358;10.902;2023-06-26T00:22:37;12.95;;;8.68;;
18170;SDS011;9210;48.358;10.902;2023-06-26T00:25:07;15.27;;;8.43;;
18170;SDS011;9210;48.358;10.902;2023-06-26T00:27:36;14.40;;;8.73;;
18170;SDS011;9210;48.358;10.902;2023-06-26T00:30:06;12.63;;;8.02;;
18170;SDS011;9210;48.358;10.902;2023-06-26T00:32:35;13.95;;;8.98;;
18170;SDS011;9210;48.358;10.902;2023-06-26T00:35:05;13.98;;;8.68;;
18170;SDS011;9210;48.358;10.902;2023-06-26T00:37:33;17.35;;;9.02;;
18170;SDS011;9210;48.358;10.902;2023-06-26T00:40:02;15.73;;;8.82;;
18170;SDS011;9210;48.358;10.902;2023-06-26T00:42:32;16.83;;;8.57;;
18170;SDS011;9210;48.358;10.902;2023-06-26T00:45:00;15.13;;;9.50;;
18170;SDS011;9210;48.358;10.902;2023-06-26T00:47:31;13.52;;;8.27;;
18170;SDS011;9210;48.358;10.902;2023-06-26T00:50:02;15.55;;;9.57;;
18170;SDS011;9210;48.358;10.902;2023-06-26T00:52:30;16.17;;;9.18;;
18170;SDS011;9210;48.358;10.902;2023-06-26T00:54:59;16.20;;;9.02;;
18170;SDS011;9210;48.358;10.902;2023-06-26T00:57:28;14.70;;;8.63;;
18170;SDS011;9210;48.358;10.902;2023-06-26T00:59:59;14.00;;;8.65;;
18170;SDS011;9210;48.358;10.902;2023-06-26T01:02:31;15.95;;;8.60;;
18170;SDS011;9210;48.358;10.902;2023-06-26T01:05:01;14.30;;;8.45;;
18170;SDS011;9210;48.358;10.902;2023-06-26T01:07:34;15.68;;;9.07;;
18170;SDS011;9210;48.358;10.902;2023-06-26T01:10:04;13.93;;;9.32;;
18170;SDS011;9210;48.358;10.902;2023-06-26T01:12:33;13.73;;;9.00;;
18170;SDS011;9210;48.358;10.902;2023-06-26T01:15:02;13.60;;;8.82;;
18170;SDS011;9210;48.358;10.902;2023-06-26T01:17:32;17.02;;;9.38;;
18170;SDS011;9210;48.358;10.902;2023-06-26T01:20:01;17.15;;;10.07;;
18170;SDS011;9210;48.358;10.902;2023-06-26T01:22:36;15.30;;;9.02;;
18170;SDS011;9210;48.358;10.902;2023-06-26T01:25:12;15.40;;;8.70;;
18170;SDS011;9210;48.358;10.902;2023-06-26T01:27:47;14.40;;;9.00;;
18170;SDS011;9210;48.358;10.902;2023-06-26T01:30:16;14.10;;;8.60;;
18170;SDS011;9210;48.358;10.902;2023-06-26T01:32:45;14.35;;;8.98;;
18170;SDS011;9210;48.358;10.902;2023-06-26T01:35:15;15.48;;;9.23;;
18170;SDS011;9210;48.358;10.902;2023-06-26T01:37:43;15.43;;;9.00;;
18170;SDS011;9210;48.358;10.902;2023-06-26T01:40:12;15.00;;;9.20;;
18170;SDS011;9210;48.358;10.902;2023-06-26T01:42:40;17.27;;;9.13;;
18170;SDS011;9210;48.358;10.902;2023-06-26T01:45:12;13.77;;;7.95;;
18170;SDS011;9210;48.358;10.902;2023-06-26T01:47:48;14.10;;;8.65;;
18170;SDS011;9210;48.358;10.902;2023-06-26T01:50:18;14.52;;;9.30;;
18170;SDS011;9210;48.358;10.902;2023-06-26T01:52:53;14.60;;;9.43;;
18170;SDS011;9210;48.358;10.902;2023-06-26T01:55:24;15.98;;;10.00;;
18170;SDS011;9210;48.358;10.902;2023-06-26T01:57:53;14.02;;;9.10;;
18170;SDS011;9210;48.358;10.902;2023-06-26T02:00:28;16.88;;;10.10;;
18170;SDS011;9210;48.358;10.902;2023-06-26T02:02:57;15.85;;;9.27;;
18170;SDS011;9210;48.358;10.902;2023-06-26T02:05:25;16.65;;;9.73;;
18170;SDS011;9210;48.358;10.902;2023-06-26T02:07:55;16.33;;;9.35;;
18170;SDS011;9210;48.358;10.902;2023-06-26T02:10:23;14.82;;;9.45;;
18170;SDS011;9210;48.358;10.902;2023-06-26T02:12:52;18.23;;;10.20;;
18170;SDS011;9210;48.358;10.902;2023-06-26T02:15:20;17.80;;;10.02;;
18170;SDS011;9210;48.358;10.902;2023-06-26T02:17:50;14.50;;;8.90;;
18170;SDS011;9210;48.358;10.902;2023-06-26T02:20:19;17.83;;;9.82;;
18170;SDS011;9210;48.358;10.902;2023-06-26T02:22:47;17.17;;;10.00;;
18170;SDS011;9210;48.358;10.902;2023-06-26T02:25:17;18.50;;;9.98;;
18170;SDS011;9210;48.358;10.902;2023-06-26T02:27:45;16.08;;;9.50;;
18170;SDS011;9210;48.358;10.902;2023-06-26T02:30:15;18.45;;;9.60;;
18170;SDS011;9210;48.358;10.902;2023-06-26T02:32:44;19.15;;;10.23;;
18170;SDS011;9210;48.358;10.902;2023-06-26T02:35:14;18.80;;;10.23;;
18170;SDS011;9210;48.358;10.902;2023-06-26T02:37:42;16.65;;;9.73;;
18170;SDS011;9210;48.358;10.902;2023-06-26T02:40:12;17.50;;;10.27;;
18170;SDS011;9210;48.358;10.902;2023-06-26T02:45:14;16.15;;;10.23;;
18170;SDS011;9210;48.358;10.902;2023-06-26T02:47:43;17.50;;;9.38;;
18170;SDS011;9210;48.358;10.902;2023-06-26T02:50:13;18.35;;;10.38;;
18170;SDS011;9210;48.358;10.902;2023-06-26T02:53:01;17.67;;;9.70;;
18170;SDS011;9210;48.358;10.902;2023-06-26T02:55:30;17.20;;;9.40;;
18170;SDS011;9210;48.358;10.902;2023-06-26T02:57:59;16.45;;;9.98;;
18170;SDS011;9210;48.358;10.902;2023-06-26T03:00:27;19.52;;;9.90;;
18170;SDS011;9210;48.358;10.902;2023-06-26T03:03:00;16.08;;;9.18;;
18170;SDS011;9210;48.358;10.902;2023-06-26T03:05:31;17.80;;;9.98;;
18170;SDS011;9210;48.358;10.902;2023-06-26T03:08:01;19.40;;;10.43;;
18170;SDS011;9210;48.358;10.902;2023-06-26T03:10:31;17.77;;;9.80;;
18170;SDS011;9210;48.358;10.902;2023-06-26T03:13:00;16.90;;;9.45;;
18170;SDS011;9210;48.358;10.902;2023-06-26T03:15:28;16.15;;;9.65;;
18170;SDS011;9210;48.358;10.902;2023-06-26T03:17:56;14.52;;;9.38;;
18170;SDS011;9210;48.358;10.902;2023-06-26T03:20:27;15.27;;;9.80;;
18170;SDS011;9210;48.358;10.902;2023-06-26T03:22:58;17.25;;;10.10;;
18170;SDS011;9210;48.358;10.902;2023-06-26T03:25:27;17.90;;;9.93;;
18170;SDS011;9210;48.358;10.902;2023-06-26T03:28:07;17.42;;;9.63;;
18170;SDS011;9210;48.358;10.902;2023-06-26T03:30:35;17.90;;;10.50;;
18170;SDS011;9210;48.358;10.902;2023-06-26T03:33:07;16.13;;;9.90;;
18170;SDS011;9210;48.358;10.902;2023-06-26T03:35:36;17.20;;;10.18;;
18170;SDS011;9210;48.358;10.902;2023-06-26T03:38:06;17.67;;;10.32;;
18170;SDS011;9210;48.358;10.902;2023-06-26T03:40:37;19.90;;;9.85;;
18170;SDS011;9210;48.358;10.902;2023-06-26T03:43:06;18.70;;;10.00;;
18170;SDS011;9210;48.358;10.902;2023-06-26T03:45:51;19.15;;;9.35;;
18170;SDS011;9210;48.358;10.902;2023-06-26T03:48:20;15.52;;;9.70;;
18170;SDS011;9210;48.358;10.902;2023-06-26T03:50:49;14.77;;;9.18;;
18170;SDS011;9210;48.358;10.902;2023-06-26T03:53:19;17.52;;;9.85;;
18170;SDS011;9210;48.358;10.902;2023-06-26T03:55:47;15.40;;;9.45;;
18170;SDS011;9210;48.358;10.902;2023-06-26T03:58:16;19.92;;;10.02;;
18170;SDS011;9210;48.358;10.902;2023-06-26T04:00:44;17.73;;;10.35;;
18170;SDS011;9210;48.358;10.902;2023-06-26T04:03:14;17.98;;;10.05;;
18170;SDS011;9210;48.358;10.902;2023-06-26T04:05:42;18.80;;;9.68;;
18170;SDS011;9210;48.358;10.902;2023-06-26T04:08:11;15.77;;;9.55;;
18170;SDS011;9210;48.358;10.902;2023-06-26T04:10:41;16.52;;;9.68;;
18170;SDS011;9210;48.358;10.902;2023-06-26T04:13:12;17.48;;;10.75;;
18170;SDS011;9210;48.358;10.902;2023-06-26T04:15:40;16.10;;;9.35;;
18170;SDS011;9210;48.358;10.902;2023-06-26T04:18:09;15.40;;;9.38;;
18170;SDS011;9210;48.358;10.902;2023-06-26T04:20:39;18.25;;;10.55;;
18170;SDS011;9210;48.358;10.902;2023-06-26T04:23:07;18.60;;;9.70;;
18170;SDS011;9210;48.358;10.902;2023-06-26T04:25:36;20.73;;;10.50;;
18170;SDS011;9210;48.358;10.902;2023-06-26T04:28:06;18.23;;;10.65;;
18170;SDS011;9210;48.358;10.902;2023-06-26T04:30:37;16.60;;;10.23;;
18170;SDS011;9210;48.358;10.902;2023-06-26T04:33:06;17.02;;;10.35;;
18170;SDS011;9210;48.358;10.902;2023-06-26T04:35:38;17.67;;;10.23;;
18170;SDS011;9210;48.358;10.902;2023-06-26T04:38:06;15.52;;;9.77;;
18170;SDS011;9210;48.358;10.902;2023-06-26T04:40:35;17.98;;;10.88;;
18170;SDS011;9210;48.358;10.902;2023-06-26T04:43:07;18.65;;;10.10;;
18170;SDS011;9210;48.358;10.902;2023-06-26T04:45:35;18.05;;;9.85;;
18170;SDS011;9210;48.358;10.902;2023-06-26T04:48:04;16.33;;;10.25;;
18170;SDS011;9210;48.358;10.902;2023-06-26T04:50:33;18.58;;;10.23;;
18170;SDS011;9210;48.358;10.902;2023-06-26T04:53:03;18.58;;;10.52;;
18170;SDS011;9210;48.358;10.902;2023-06-26T04:55:32;24.08;;;10.57;;
18170;SDS011;9210;48.358;10.902;2023-06-26T04:58:01;17.10;;;10.50;;
18170;SDS011;9210;48.358;10.902;2023-06-26T05:00:31;16.38;;;10.50;;
18170;SDS011;9210;48.358;10.902;2023-06-26T05:03:02;23.63;;;11.43;;
18170;SDS011;9210;48.358;10.902;2023-06-26T05:05:31;22.10;;;10.27;;
18170;SDS011;9210;48.358;10.902;2023-06-26T05:08:12;20.02;;;10.80;;
18170;SDS011;9210;48.358;10.902;2023-06-26T05:10:41;17.70;;;10.65;;
18170;SDS011;9210;48.358;10.902;2023-06-26T05:13:10;19.10;;;10.52;;
18170;SDS011;9210;48.358;10.902;2023-06-26T05:15:43;17.88;;;9.90;;
18170;SDS011;9210;48.358;10.902;2023-06-26T05:18:11;15.35;;;9.45;;
18170;SDS011;9210;48.358;10.902;2023-06-26T05:20:41;19.38;;;9.90;;
18170;SDS011;9210;48.358;10.902;2023-06-26T05:23:11;15.95;;;9.07;;
18170;SDS011;9210;48.358;10.902;2023-06-26T05:25:40;19.25;;;10.18;;
18170;SDS011;9210;48.358;10.902;2023-06-26T05:28:09;16.40;;;9.60;;
18170;SDS011;9210;48.358;10.902;2023-06-26T05:30:38;15.73;;;9.27;;
18170;SDS011;9210;48.358;10.902;2023-06-26T05:33:12;17.88;;;10.13;;
18170;SDS011;9210;48.358;10.902;2023-06-26T05:35:44;18.60;;;9.27;;
18170;SDS011;9210;48.358;10.902;2023-06-26T05:38:13;15.30;;;9.05;;
18170;SDS011;9210;48.358;10.902;2023-06-26T05:40:42;14.10;;;8.57;;
18170;SDS011;9210;48.358;10.902;2023-06-26T05:43:13;14.32;;;8.48;;
18170;SDS011;9210;48.358;10.902;2023-06-26T05:45:47;16.52;;;8.70;;
18170;SDS011;9210;48.358;10.902;2023-06-26T05:48:23;15.15;;;9.98;;
18170;SDS011;9210;48.358;10.902;2023-06-26T05:50:53;13.25;;;8.05;;
18170;SDS011;9210;48.358;10.902;2023-06-26T05:53:22;13.93;;;8.25;;
18170;SDS011;9210;48.358;10.902;2023-06-26T05:55:52;14.35;;;8.52;;
18170;SDS011;9210;48.358;10.902;2023-06-26T05:58:21;13.60;;;7.53;;
18170;SDS011;9210;48.358;10.902;2023-06-26T06:00:51;15.50;;;8.68;;
18170;SDS011;9210;48.358;10.902;2023-06-26T06:03:22;13.80;;;7.93;;
18170;SDS011;9210;48.358;10.902;2023-06-26T06:05:52;13.32;;;8.32;;
18170;SDS011;9210;48.358;10.902;2023-06-26T06:08:21;11.35;;;7.72;;
18170;SDS011;9210;48.358;10.902;2023-06-26T06:10:51;11.13;;;7.35;;
18170;SDS011;9210;48.358;10.902;2023-06-26T06:13:20;11.48;;;7.47;;
18170;SDS011;9210;48.358;10.902;2023-06-26T06:15:49;10.55;;;7.10;;
18170;SDS011;9210;48.358;10.902;2023-06-26T06:18:19;13.30;;;8.02;;
18170;SDS011;9210;48.358;10.902;2023-06-26T06:20:49;12.15;;;7.70;;
18170;SDS011;9210;48.358;10.902;2023-06-26T06:23:18;14.30;;;7.30;;
18170;SDS011;9210;48.358;10.902;2023-06-26T06:25:46;13.10;;;7.60;;
18170;SDS011;9210;48.358;10.902;2023-06-26T06:28:15;11.60;;;7.65;;
18170;SDS011;9210;48.358;10.902;2023-06-26T06:30:44;12.68;;;7.50;;
18170;SDS011;9210;48.358;10.902;2023-06-26T06:33:16;12.18;;;7.40;;
18170;SDS011;9210;48.358;10.902;2023-06-26T06:35:53;14.50;;;7.75;;
18170;SDS011;9210;48.358;10.902;2023-06-26T06:38:26;12.10;;;7.00;;
18170;SDS011;9210;48.358;10.902;2023-06-26T06:40:54;10.98;;;6.95;;
18170;SDS011;9210;48.358;10.902;2023-06-26T06:43:24;12.70;;;7.90;;
18170;SDS011;9210;48.358;10.902;2023-06-26T06:45:53;13.82;;;7.70;;
18170;SDS011;9210;48.358;10.902;2023-06-26T06:48:22;11.02;;;7.05;;
18170;SDS011;9210;48.358;10.902;2023-06-26T06:50:53;11.48;;;7.25;;
18170;SDS011;9210;48.358;10.902;2023-06-26T06:53:22;11.73;;;7.30;;
18170;SDS011;9210;48.358;10.902;2023-06-26T06:55:50;11.85;;;7.68;;
18170;SDS011;9210;48.358;10.902;2023-06-26T06:58:19;10.23;;;6.75;;
18170;SDS011;9210;48.358;10.902;2023-06-26T07:00:49;11.18;;;6.50;;
18170;SDS011;9210;48.358;10.902;2023-06-26T07:03:18;10.90;;;7.13;;
18170;SDS011;9210;48.358;10.902;2023-06-26T07:05:49;10.25;;;6.90;;
18170;SDS011;9210;48.358;10.902;2023-06-26T07:08:19;14.07;;;7.50;;
18170;SDS011;9210;48.358;10.902;2023-06-26T07:10:48;10.55;;;7.18;;
18170;SDS011;9210;48.358;10.902;2023-06-26T07:13:17;10.32;;;6.43;;
18170;SDS011;9210;48.358;10.902;2023-06-26T07:15:46;9.75;;;6.65;;
18170;SDS011;9210;48.358;10.902;2023-06-26T07:18:15;9.85;;;6.82;;
18170;SDS011;9210;48.358;10.902;2023-06-26T07:20:44;10.73;;;6.72;;
18170;SDS011;9210;48.358;10.902;2023-06-26T07:23:14;9.77;;;6.68;;
18170;SDS011;9210;48.358;10.902;2023-06-26T07:25:44;8.52;;;6.03;;
18170;SDS011;9210;48.358;10.902;2023-06-26T07:28:15;9.48;;;6.65;;
18170;SDS011;9210;48.358;10.902;2023-06-26T07:30:44;9.60;;;6.28;;
18170;SDS011;9210;48.358;10.902;2023-06-26T07:33:13;8.63;;;6.15;;
18170;SDS011;9210;48.358;10.902;2023-06-26T07:35:42;10.88;;;7.20;;
18170;SDS011;9210;48.358;10.902;2023-06-26T07:38:10;10.55;;;6.75;;
18170;SDS011;9210;48.358;10.902;2023-06-26T07:40:39;9.90;;;6.47;;
18170;SDS011;9210;48.358;10.902;2023-06-26T07:43:08;9.57;;;6.53;;
18170;SDS011;9210;48.358;10.902;2023-06-26T07:45:37;8.30;;;6.18;;
18170;SDS011;9210;48.358;10.902;2023-06-26T07:48:05;11.45;;;6.47;;
18170;SDS011;9210;48.358;10.902;2023-06-26T07:50:36;10.32;;;7.07;;
18170;SDS011;9210;48.358;10.902;2023-06-26T07:53:05;10.30;;;6.30;;
18170;SDS011;9210;48.358;10.902;2023-06-26T07:55:34;9.55;;;6.47;;
18170;SDS011;9210;48.358;10.902;2023-06-26T07:58:03;12.52;;;6.45;;
18170;SDS011;9210;48.358;10.902;2023-06-26T08:00:33;10.23;;;6.68;;
18170;SDS011;9210;48.358;10.902;2023-06-26T08:03:04;9.27;;;6.50;;
18170;SDS011;9210;48.358;10.902;2023-06-26T08:05:40;13.63;;;6.55;;
18170;SDS011;9210;48.358;10.902;2023-06-26T08:08:09;11.55;;;6.57;;
18170;SDS011;9210;48.358;10.902;2023-06-26T08:10:37;8.95;;;6.25;;
18170;SDS011;9210;48.358;10.902;2023-06-26T08:13:07;9.75;;;6.00;;
18170;SDS011;9210;48.358;10.902;2023-06-26T08:15:37;11.32;;;6.25;;
18170;SDS011;9210;48.358;10.902;2023-06-26T08:18:07;9.80;;;5.95;;
18170;SDS011;9210;48.358;10.902;2023-06-26T08:20:37;9.13;;;5.82;;
18170;SDS011;9210;48.358;10.902;2023-06-26T08:23:06;7.28;;;5.28;;
18170;SDS011;9210;48.358;10.902;2023-06-26T08:25:35;9.48;;;5.65;;
18170;SDS011;9210;48.358;10.902;2023-06-26T08:28:04;7.13;;;5.40;;
18170;SDS011;9210;48.358;10.902;2023-06-26T08:30:32;7.38;;;5.50;;
18170;SDS011;9210;48.358;10.902;2023-06-26T08:33:06;7.85;;;5.22;;
18170;SDS011;9210;48.358;10.902;2023-06-26T08:35:40;9.18;;;6.10;;
18170;SDS011;9210;48.358;10.902;2023-06-26T08:38:09;7.80;;;5.90;;
18170;SDS011;9210;48.358;10.902;2023-06-26T08:40:37;10.10;;;6.05;;
18170;SDS011;9210;48.358;10.902;2023-06-26T08:43:07;7.10;;;5.72;;
18170;SDS011;9210;48.358;10.902;2023-06-26T08:45:36;6.82;;;5.00;;
18170;SDS011;9210;48.358;10.902;2023-06-26T08:48:07;7.57;;;5.25;;
18170;SDS011;9210;48.358;10.902;2023-06-26T08:50:35;7.82;;;5.50;;
18170;SDS011;9210;48.358;10.902;2023-06-26T08:53:08;7.50;;;5.90;;
18170;SDS011;9210;48.358;10.902;2023-06-26T08:55:40;7.53;;;5.50;;
18170;SDS011;9210;48.358;10.902;2023-06-26T08:58:09;7.93;;;5.55;;
18170;SDS011;9210;48.358;10.902;2023-06-26T09:00:39;9.10;;;5.05;;
18170;SDS011;9210;48.358;10.902;2023-06-26T09:03:11;8.05;;;5.10;;
18170;SDS011;9210;48.358;10.902;2023-06-26T09:05:41;6.97;;;5.50;;
18170;SDS011;9210;48.358;10.902;2023-06-26T09:08:09;8.55;;;5.72;;
18170;SDS011;9210;48.358;10.902;2023-06-26T09:10:47;8.63;;;5.22;;
18170;SDS011;9210;48.358;10.902;2023-06-26T09:13:15;10.88;;;5.57;;
18170;SDS011;9210;48.358;10.902;2023-06-26T09:15:55;8.02;;;5.15;;
18170;SDS011;9210;48.358;10.902;2023-06-26T09:18:26;7.38;;;5.57;;
18170;SDS011;9210;48.358;10.902;2023-06-26T09:20:55;7.25;;;5.22;;
18170;SDS011;9210;48.358;10.902;2023-06-26T09:23:24;9.05;;;5.68;;
18170;SDS011;9210;48.358;10.902;2023-06-26T09:25:53;7.60;;;5.03;;
18170;SDS011;9210;48.358;10.902;2023-06-26T09:28:22;10.20;;;5.80;;
18170;SDS011;9210;48.358;10.902;2023-06-26T09:30:51;9.80;;;5.43;;
18170;SDS011;9210;48.358;10.902;2023-06-26T09:33:20;6.35;;;4.82;;
18170;SDS011;9210;48.358;10.902;2023-06-26T09:35:52;6.40;;;5.20;;
18170;SDS011;9210;48.358;10.902;2023-06-26T09:38:21;6.95;;;4.90;;
18170;SDS011;9210;48.358;10.902;2023-06-26T09:40:50;9.57;;;5.28;;
18170;SDS011;9210;48.358;10.902;2023-06-26T09:43:21;7.43;;;5.22;;
18170;SDS011;9210;48.358;10.902;2023-06-26T09:45:50;7.55;;;5.10;;
18170;SDS011;9210;48.358;10.902;2023-06-26T09:48:21;11.50;;;5.28;;
18170;SDS011;9210;48.358;10.902;2023-06-26T09:51:01;7.53;;;4.72;;
18170;SDS011;9210;48.358;10.902;2023-06-26T09:53:41;7.88;;;5.13;;
18170;SDS011;9210;48.358;10.902;2023-06-26T09:56:14;6.90;;;5.50;;
18170;SDS011;9210;48.358;10.902;2023-06-26T09:58:44;10.70;;;5.68;;
18170;SDS011;9210;48.358;10.902;2023-06-26T10:01:15;7.40;;;5.20;;
18170;SDS011;9210;48.358;10.902;2023-06-26T10:03:43;7.85;;;5.03;;
18170;SDS011;9210;48.358;10.902;2023-06-26T10:06:13;7.22;;;4.68;;
18170;SDS011;9210;48.358;10.902;2023-06-26T10:08:45;8.07;;;5.53;;
18170;SDS011;9210;48.358;10.902;2023-06-26T10:11:15;7.45;;;5.28;;
18170;SDS011;9210;48.358;10.902;2023-06-26T10:13:45;8.60;;;5.57;;
18170;SDS011;9210;48.358;10.902;2023-06-26T10:16:22;9.25;;;4.82;;
18170;SDS011;9210;48.358;10.902;2023-06-26T10:18:56;9.23;;;4.95;;
18170;SDS011;9210;48.358;10.902;2023-06-26T10:21:29;10.07;;;5.10;;
18170;SDS011;9210;48.358;10.902;2023-06-26T10:23:57;6.28;;;4.65;;
18170;SDS011;9210;48.358;10.902;2023-06-26T10:26:27;7.97;;;4.80;;
18170;SDS011;9210;48.358;10.902;2023-06-26T10:28:59;5.47;;;4.57;;
18170;SDS011;9210;48.358;10.902;2023-06-26T10:31:29;7.53;;;5.13;;
18170;SDS011;9210;48.358;10.902;2023-06-26T10:34:03;7.10;;;4.90;;
18170;SDS011;9210;48.358;10.902;2023-06-26T10:36:35;6.60;;;4.70;;
18170;SDS011;9210;48.358;10.902;2023-06-26T10:39:05;8.45;;;4.68;;
18170;SDS011;9210;48.358;10.902;2023-06-26T10:41:49;6.53;;;5.00;;
18170;SDS011;9210;48.358;10.902;2023-06-26T10:44:51;9.65;;;5.50;;
18170;SDS011;9210;48.358;10.902;2023-06-26T10:47:31;6.93;;;5.07;;
18170;SDS011;9210;48.358;10.902;2023-06-26T10:53:24;6.53;;;4.78;;
18170;SDS011;9210;48.358;10.902;2023-06-26T10:55:55;6.68;;;4.53;;
18170;SDS011;9210;48.358;10.902;2023-06-26T10:58:28;6.80;;;4.45;;
18170;SDS011;9210;48.358;10.902;2023-06-26T11:01:14;6.75;;;4.65;;
18170;SDS011;9210;48.358;10.902;2023-06-26T11:03:43;6.85;;;4.85;;
18170;SDS011;9210;48.358;10.902;2023-06-26T11:06:15;7.32;;;5.20;;
18170;SDS011;9210;48.358;10.902;2023-06-26T11:08:45;8.98;;;5.03;;
18170;SDS011;9210;48.358;10.902;2023-06-26T11:11:15;7.10;;;5.20;;
18170;SDS011;9210;48.358;10.902;2023-06-26T11:13:46;6.88;;;5.22;;
18170;SDS011;9210;48.358;10.902;2023-06-26T11:19:15;7.30;;;5.20;;
18170;SDS011;9210;48.358;10.902;2023-06-26T11:21:45;8.00;;;5.38;;
18170;SDS011;9210;48.358;10.902;2023-06-26T11:24:15;11.63;;;5.68;;
18170;SDS011;9210;48.358;10.902;2023-06-26T11:26:46;9.45;;;5.55;;
18170;SDS011;9210;48.358;10.902;2023-06-26T11:29:17;7.18;;;5.47;;
18170;SDS011;9210;48.358;10.902;2023-06-26T11:32:03;9.10;;;5.80;;
18170;SDS011;9210;48.358;10.902;2023-06-26T11:34:42;7.57;;;5.70;;
18170;SDS011;9210;48.358;10.902;2023-06-26T11:37:11;8.13;;;5.43;;
18170;SDS011;9210;48.358;10.902;2023-06-26T11:39:41;9.10;;;5.25;;
18170;SDS011;9210;48.358;10.902;2023-06-26T11:42:10;6.38;;;5.20;;
18170;SDS011;9210;48.358;10.902;2023-06-26T11:44:39;8.18;;;5.95;;
18170;SDS011;9210;48.358;10.902;2023-06-26T11:47:12;8.15;;;5.68;;
18170;SDS011;9210;48.358;10.902;2023-06-26T11:49:42;8.05;;;5.85;;
18170;SDS011;9210;48.358;10.902;2023-06-26T11:52:20;9.85;;;5.65;;
18170;SDS011;9210;48.358;10.902;2023-06-26T11:54:53;8.93;;;5.53;;
18170;SDS011;9210;48.358;10.902;2023-06-26T11:57:22;11.13;;;5.85;;
18170;SDS011;9210;48.358;10.902;2023-06-26T11:59:51;8.32;;;5.57;;
18170;SDS011;9210;48.358;10.902;2023-06-26T12:02:20;9.45;;;5.32;;
18170;SDS011;9210;48.358;10.902;2023-06-26T12:04:49;105.30;;;8.98;;
18170;SDS011;9210;48.358;10.902;2023-06-26T12:07:20;12.50;;;5.28;;
18170;SDS011;9210;48.358;10.902;2023-06-26T12:09:50;11.73;;;5.00;;
18170;SDS011;9210;48.358;10.902;2023-06-26T12:12:23;11.50;;;5.35;;
18170;SDS011;9210;48.358;10.902;2023-06-26T12:14:55;8.27;;;5.07;;
18170;SDS011;9210;48.358;10.902;2023-06-26T12:17:24;9.73;;;5.10;;
18170;SDS011;9210;48.358;10.902;2023-06-26T12:19:55;8.05;;;4.85;;
18170;SDS011;9210;48.358;10.902;2023-06-26T12:22:24;6.88;;;4.75;;
18170;SDS011;9210;48.358;10.902;2023-06-26T12:24:56;12.60;;;5.35;;
18170;SDS011;9210;48.358;10.902;2023-06-26T12:27:29;9.48;;;4.95;;
18170;SDS011;9210;48.358;10.902;2023-06-26T12:29:58;8.98;;;4.88;;
18170;SDS011;9210;48.358;10.902;2023-06-26T12:32:28;5.75;;;4.82;;
18170;SDS011;9210;48.358;10.902;2023-06-26T12:34:57;8.98;;;5.20;;
18170;SDS011;9210;48.358;10.902;2023-06-26T12:37:29;6.53;;;4.70;;
18170;SDS011;9210;48.358;10.902;2023-06-26T12:40:05;7.03;;;5.30;;
18170;SDS011;9210;48.358;10.902;2023-06-26T12:42:45;6.93;;;5.05;;
18170;SDS011;9210;48.358;10.902;2023-06-26T12:45:14;7.93;;;5.03;;
18170;SDS011;9210;48.358;10.902;2023-06-26T12:47:46;9.70;;;5.05;;
18170;SDS011;9210;48.358;10.902;2023-06-26T12:50:18;7.15;;;5.28;;
18170;SDS011;9210;48.358;10.902;2023-06-26T12:52:49;6.55;;;4.97;;
18170;SDS011;9210;48.358;10.902;2023-06-26T12:55:18;6.32;;;4.93;;
18170;SDS011;9210;48.358;10.902;2023-06-26T12:57:52;7.82;;;5.03;;
18170;SDS011;9210;48.358;10.902;2023-06-26T13:00:22;6.72;;;4.97;;
18170;SDS011;9210;48.358;10.902;2023-06-26T13:02:56;7.15;;;5.20;;
18170;SDS011;9210;48.358;10.902;2023-06-26T13:05:27;7.75;;;5.30;;
18170;SDS011;9210;48.358;10.902;2023-06-26T13:08:04;8.02;;;4.93;;
18170;SDS011;9210;48.358;10.902;2023-06-26T13:10:34;10.18;;;5.10;;
18170;SDS011;9210;48.358;10.902;2023-06-26T13:13:12;7.13;;;4.95;;
18170;SDS011;9210;48.358;10.902;2023-06-26T13:15:53;7.88;;;5.13;;
18170;SDS011;9210;48.358;10.902;2023-06-26T13:18:27;8.63;;;4.85;;
18170;SDS011;9210;48.358;10.902;2023-06-26T13:20:58;6.07;;;4.88;;
18170;SDS011;9210;48.358;10.902;2023-06-26T13:23:27;6.18;;;4.68;;
18170;SDS011;9210;48.358;10.902;2023-06-26T13:26:01;6.88;;;5.13;;
18170;SDS011;9210;48.358;10.902;2023-06-26T13:28:32;8.45;;;5.30;;
18170;SDS011;9210;48.358;10.902;2023-06-26T13:31:00;8.30;;;5.30;;
18170;SDS011;9210;48.358;10.902;2023-06-26T13:33:29;9.90;;;5.43;;
18170;SDS011;9210;48.358;10.902;2023-06-26T13:36:00;8.73;;;4.85;;
18170;SDS011;9210;48.358;10.902;2023-06-26T13:38:32;6.43;;;5.20;;
18170;SDS011;9210;48.358;10.902;2023-06-26T13:41:05;7.22;;;5.18;;
18170;SDS011;9210;48.358;10.902;2023-06-26T13:43:35;6.43;;;4.93;;
18170;SDS011;9210;48.358;10.902;2023-06-26T13:46:05;6.60;;;4.90;;
18170;SDS011;9210;48.358;10.902;2023-06-26T13:48:40;7.70;;;5.03;;
18170;SDS011;9210;48.358;10.902;2023-06-26T13:51:14;6.35;;;5.13;;
18170;SDS011;9210;48.358;10.902;2023-06-26T13:53:43;6.95;;;4.55;;
18170;SDS011;9210;48.358;10.902;2023-06-26T13:56:11;6.53;;;4.97;;
18170;SDS011;9210;48.358;10.902;2023-06-26T13:58:42;7.53;;;5.18;;
18170;SDS011;9210;48.358;10.902;2023-06-26T14:01:13;6.93;;;5.22;;
18170;SDS011;9210;48.358;10.902;2023-06-26T14:03:51;8.10;;;5.43;;
18170;SDS011;9210;48.358;10.902;2023-06-26T14:06:20;8.43;;;5.22;;
18170;SDS011;9210;48.358;10.902;2023-06-26T14:08:50;7.90;;;5.25;;
18170;SDS011;9210;48.358;10.902;2023-06-26T14:11:18;8.68;;;5.43;;
18170;SDS011;9210;48.358;10.902;2023-06-26T14:13:53;6.35;;;5.20;;
18170;SDS011;9210;48.358;10.902;2023-06-26T14:16:23;8.02;;;5.85;;
18170;SDS011;9210;48.358;10.902;2023-06-26T14:18:55;11.52;;;5.80;;
18170;SDS011;9210;48.358;10.902;2023-06-26T14:21:31;6.82;;;5.30;;
18170;SDS011;9210;48.358;10.902;2023-06-26T14:24:15;7.60;;;5.30;;
18170;SDS011;9210;48.358;10.902;2023-06-26T14:26:48;7.20;;;5.40;;
18170;SDS011;9210;48.358;10.902;2023-06-26T14:29:55;7.68;;;5.50;;
18170;SDS011;9210;48.358;10.902;2023-06-26T14:32:38;9.45;;;5.57;;
18170;SDS011;9210;48.358;10.902;2023-06-26T14:35:14;8.10;;;5.85;;
18170;SDS011;9210;48.358;10.902;2023-06-26T14:38:04;9.98;;;5.80;;
18170;SDS011;9210;48.358;10.902;2023-06-26T14:40:51;8.68;;;5.95;;
18170;SDS011;9210;48.358;10.902;2023-06-26T14:43:29;9.13;;;6.38;;
18170;SDS011;9210;48.358;10.902;2023-06-26T14:46:04;11.23;;;5.75;;
18170;SDS011;9210;48.358;10.902;2023-06-26T14:48:43;9.18;;;6.10;;
18170;SDS011;9210;48.358;10.902;2023-06-26T14:51:14;8.10;;;5.70;;
18170;SDS011;9210;48.358;10.902;2023-06-26T14:53:42;7.85;;;5.70;;
18170;SDS011;9210;48.358;10.902;2023-06-26T14:56:15;8.80;;;5.88;;
18170;SDS011;9210;48.358;10.902;2023-06-26T14:58:53;8.35;;;5.80;;
18170;SDS011;9210;48.358;10.902;2023-06-26T15:01:30;7.40;;;5.28;;
18170;SDS011;9210;48.358;10.902;2023-06-26T15:04:10;7.93;;;6.00;;
18170;SDS011;9210;48.358;10.902;2023-06-26T15:07:04;11.23;;;5.93;;
18170;SDS011;9210;48.358;10.902;2023-06-26T15:09:33;10.75;;;6.53;;